createdAt,value
2018-11-05T00:02:28.182Z,10.70
2018-11-05T00:04:58.450Z,10.80
2018-11-05T00:07:30.039Z,10.80
2018-11-05T00:10:01.271Z,10.80
2018-11-05T00:12:32.900Z,10.90
2018-11-05T00:15:03.275Z,10.90
2018-11-05T00:17:34.080Z,10.90
2018-11-05T00:20:04.861Z,10.90
2018-11-05T00:22:56.511Z,10.90
2018-11-05T00:25:27.324Z,11.00
2018-11-05T00:27:59.864Z,11.10
2018-11-05T00:30:30.561Z,11.10
2018-11-05T00:33:02.423Z,11.10
2018-11-05T00:35:33.210Z,11.20
2018-11-05T00:38:03.821Z,11.20
2018-11-05T00:40:34.520Z,11.20
2018-11-05T00:43:05.050Z,11.30
2018-11-05T00:45:35.809Z,11.30
2018-11-05T00:48:06.431Z,11.40
2018-11-05T00:50:36.900Z,11.40
2018-11-05T00:53:07.559Z,11.40
2018-11-05T00:55:38.110Z,11.50
2018-11-05T00:58:09.780Z,11.50
2018-11-05T01:00:49.780Z,11.50
2018-11-05T01:03:21.092Z,11.50
2018-11-05T01:05:51.614Z,11.50
2018-11-05T01:08:23.370Z,11.50
2018-11-05T01:10:53.800Z,11.60
2018-11-05T01:13:24.834Z,11.60
2018-11-05T01:15:55.333Z,11.60
2018-11-05T01:18:26.520Z,11.60
2018-11-05T01:20:58.570Z,11.60
2018-11-05T01:23:29.700Z,11.60
2018-11-05T01:26:00.260Z,11.60
2018-11-05T01:28:31.320Z,11.60
2018-11-05T01:31:02.772Z,11.60
2018-11-05T01:33:34.300Z,11.60
2018-11-05T01:36:04.870Z,11.60
2018-11-05T01:38:36.202Z,11.50
2018-11-05T01:41:08.270Z,11.60
2018-11-05T01:43:39.000Z,11.50
2018-11-05T01:46:10.794Z,11.50
2018-11-05T01:48:41.531Z,11.50
2018-11-05T01:51:12.150Z,11.50
2018-11-05T01:53:44.124Z,11.40
2018-11-05T01:56:15.600Z,11.50
2018-11-05T01:58:46.830Z,11.40
2018-11-05T02:01:17.514Z,11.50
2018-11-05T02:03:49.544Z,11.50
2018-11-05T02:06:20.413Z,11.50
2018-11-05T02:08:51.395Z,11.40
2018-11-05T02:11:23.133Z,11.40
2018-11-05T02:13:54.054Z,11.40
2018-11-05T02:16:25.924Z,11.40
2018-11-05T02:18:56.943Z,11.40
2018-11-05T02:21:27.357Z,11.40
2018-11-05T02:23:58.364Z,11.50
2018-11-05T02:26:28.664Z,11.50
2018-11-05T02:28:59.353Z,11.40
2018-11-05T02:31:30.205Z,11.40
2018-11-05T02:34:02.339Z,11.40
2018-11-05T02:36:32.324Z,11.40
2018-11-05T02:39:02.753Z,11.40
2018-11-05T02:41:33.218Z,11.40
2018-11-05T02:44:03.913Z,11.50
2018-11-05T02:46:34.644Z,11.50
2018-11-05T02:49:05.096Z,11.50
2018-11-05T02:51:35.244Z,11.50
2018-11-05T02:54:06.497Z,11.60
2018-11-05T02:56:38.323Z,11.60
2018-11-05T02:59:08.924Z,11.50
2018-11-05T03:01:40.575Z,11.50
2018-11-05T03:04:12.823Z,11.50
2018-11-05T03:06:43.874Z,11.60
2018-11-05T03:09:14.983Z,11.60
2018-11-05T03:11:45.574Z,11.60
2018-11-05T03:14:18.295Z,11.50
2018-11-05T03:16:48.484Z,11.50
2018-11-05T03:19:18.854Z,11.40
2018-11-05T03:21:49.073Z,11.40
2018-11-05T03:24:21.085Z,11.40
2018-11-05T03:26:52.235Z,11.40
2018-11-05T03:29:22.684Z,11.40
2018-11-05T03:31:59.716Z,11.40
2018-11-05T03:34:30.255Z,11.40
2018-11-05T03:37:00.137Z,11.30
2018-11-05T03:39:30.495Z,11.40
2018-11-05T03:42:01.214Z,11.30
2018-11-05T03:44:32.636Z,11.40
2018-11-05T03:47:03.815Z,11.40
2018-11-05T03:49:34.544Z,11.40
2018-11-05T03:52:11.664Z,11.40
2018-11-05T03:54:42.316Z,11.40
2018-11-05T03:57:12.554Z,11.50
2018-11-05T03:59:43.924Z,11.50
2018-11-05T04:02:14.564Z,11.50
2018-11-05T04:04:45.454Z,11.50
2018-11-05T04:07:16.934Z,11.50
2018-11-05T04:09:50.324Z,11.50
2018-11-05T04:12:21.267Z,11.50
2018-11-05T04:14:52.395Z,11.50
2018-11-05T04:17:23.374Z,11.50
2018-11-05T04:19:54.514Z,11.40
2018-11-05T04:22:25.183Z,11.40
2018-11-05T04:24:57.435Z,11.40
2018-11-05T04:27:28.437Z,11.40
2018-11-05T04:29:59.734Z,11.40
2018-11-05T04:32:33.664Z,11.40
2018-11-05T04:35:04.623Z,11.40
2018-11-05T04:37:35.055Z,11.40
2018-11-05T04:40:06.084Z,11.40
2018-11-05T04:42:36.384Z,11.40
2018-11-05T04:45:08.498Z,11.40
2018-11-05T04:47:39.585Z,11.40
2018-11-05T04:50:11.965Z,11.40
2018-11-05T04:52:44.385Z,11.40
2018-11-05T04:55:16.376Z,11.40
2018-11-05T04:57:47.647Z,11.40
2018-11-05T05:00:19.197Z,11.40
2018-11-05T05:02:50.584Z,11.40
2018-11-05T05:05:21.974Z,11.40
2018-11-05T05:07:52.472Z,11.30
2018-11-05T05:10:23.445Z,11.30
2018-11-05T05:12:53.714Z,11.30
2018-11-05T05:15:24.363Z,11.30
2018-11-05T05:17:55.214Z,11.30
2018-11-05T05:20:26.155Z,11.30
2018-11-05T05:22:57.649Z,11.30
2018-11-05T05:25:28.575Z,11.30
2018-11-05T05:28:00.607Z,11.30
2018-11-05T05:30:31.434Z,11.30
2018-11-05T05:33:02.428Z,11.30
2018-11-05T05:35:34.945Z,11.30
2018-11-05T05:38:05.174Z,11.30
2018-11-05T05:40:36.509Z,11.30
2018-11-05T05:43:07.024Z,11.30
2018-11-05T05:45:38.474Z,11.30
2018-11-05T05:48:08.746Z,11.30
2018-11-05T05:50:38.874Z,11.30
2018-11-05T05:53:09.274Z,11.30
2018-11-05T05:55:40.535Z,11.30
2018-11-05T05:58:10.858Z,11.30
2018-11-05T06:00:41.053Z,11.30
2018-11-05T06:03:11.357Z,11.20
2018-11-05T06:05:42.653Z,11.20
2018-11-05T06:08:14.725Z,11.20
2018-11-05T06:10:45.563Z,11.20
2018-11-05T06:13:16.704Z,11.20
2018-11-05T06:15:47.758Z,11.20
2018-11-05T06:18:18.224Z,11.30
2018-11-05T06:20:48.594Z,11.30
2018-11-05T06:23:19.640Z,11.30
2018-11-05T06:25:50.844Z,11.30
2018-11-05T06:28:22.078Z,11.40
2018-11-05T06:30:53.835Z,11.40
2018-11-05T06:33:25.606Z,11.40
2018-11-05T06:35:56.744Z,11.50
2018-11-05T06:38:30.734Z,11.50
2018-11-05T06:41:02.232Z,11.60
2018-11-05T06:43:34.014Z,11.60
2018-11-05T06:46:04.744Z,11.60
2018-11-05T06:48:35.915Z,11.60
2018-11-05T06:51:07.214Z,11.60
2018-11-05T06:53:37.754Z,11.70
2018-11-05T06:56:09.483Z,11.70
2018-11-05T06:58:40.884Z,11.80
2018-11-05T07:01:12.391Z,11.80
2018-11-05T07:03:43.318Z,11.90
2018-11-05T07:06:15.090Z,11.90
2018-11-05T07:08:46.958Z,11.90
2018-11-05T07:11:19.239Z,11.90
2018-11-05T07:13:51.659Z,11.90
2018-11-05T07:16:22.998Z,11.90
2018-11-05T07:18:54.520Z,11.90
2018-11-05T07:21:34.384Z,12.00
2018-11-05T07:24:05.882Z,12.10
2018-11-05T07:26:45.707Z,12.10
2018-11-05T07:29:16.970Z,12.20
2018-11-05T07:31:48.729Z,12.30
2018-11-05T07:34:20.530Z,12.30
2018-11-05T07:36:52.028Z,12.40
2018-11-05T07:39:23.939Z,12.50
2018-11-05T07:41:55.320Z,12.50
2018-11-05T07:44:26.448Z,12.60
2018-11-05T07:46:57.690Z,12.70
2018-11-05T07:49:29.448Z,12.70
2018-11-05T07:52:01.660Z,12.80
2018-11-05T07:54:32.699Z,12.80
2018-11-05T07:57:03.851Z,12.90
2018-11-05T07:59:34.808Z,12.90
2018-11-05T08:02:19.439Z,13.00
2018-11-05T08:04:50.646Z,13.10
2018-11-05T08:07:22.150Z,13.10
2018-11-05T08:09:52.604Z,13.30
2018-11-05T08:12:46.689Z,13.40
2018-11-05T08:15:19.650Z,13.50
2018-11-05T08:17:51.180Z,13.70
2018-11-05T08:20:21.628Z,13.70
2018-11-05T08:22:53.471Z,13.80
2018-11-05T08:25:23.867Z,13.80
2018-11-05T08:27:54.617Z,13.80
2018-11-05T08:30:27.098Z,13.80
2018-11-05T08:32:58.228Z,13.80
2018-11-05T08:35:29.159Z,13.90
2018-11-05T08:37:59.950Z,14.10
2018-11-05T08:41:06.209Z,14.10
2018-11-05T08:43:38.323Z,14.20
2018-11-05T08:46:08.898Z,14.40
2018-11-05T08:48:39.669Z,14.50
2018-11-05T08:51:48.091Z,14.50
2018-11-05T08:54:18.394Z,14.50
2018-11-05T08:56:48.927Z,14.50
2018-11-05T08:59:21.889Z,14.60
2018-11-05T09:02:23.300Z,14.60
2018-11-05T09:04:53.802Z,14.70
2018-11-05T09:07:24.731Z,14.60
2018-11-05T09:09:55.150Z,14.70
2018-11-05T09:12:56.890Z,14.70
2018-11-05T09:15:28.708Z,14.70
2018-11-05T09:18:00.070Z,14.80
2018-11-05T09:21:07.904Z,14.80
2018-11-05T09:23:39.029Z,14.90
2018-11-05T09:26:10.329Z,15.00
2018-11-05T09:28:41.102Z,15.10
2018-11-05T09:31:35.470Z,15.20
2018-11-05T09:34:06.028Z,15.30
2018-11-05T09:36:36.570Z,15.40
2018-11-05T09:39:09.757Z,15.40
2018-11-05T09:42:03.140Z,15.50
2018-11-05T09:44:34.359Z,15.60
2018-11-05T09:47:05.429Z,15.60
2018-11-05T09:49:36.031Z,15.70
2018-11-05T09:52:43.059Z,15.80
2018-11-05T09:55:14.437Z,15.80
2018-11-05T09:57:45.220Z,15.80
2018-11-05T10:00:17.530Z,15.80
2018-11-05T10:02:53.174Z,15.80
2018-11-05T10:05:24.424Z,15.80
2018-11-05T10:08:29.798Z,15.90
2018-11-05T10:11:01.167Z,15.90
2018-11-05T10:13:31.839Z,15.90
2018-11-05T10:16:11.514Z,15.90
2018-11-05T10:18:46.664Z,15.90
2018-11-05T10:21:26.392Z,16.00
2018-11-05T10:23:58.051Z,16.00
2018-11-05T10:26:37.220Z,16.00
2018-11-05T10:29:16.825Z,16.00
2018-11-05T10:31:56.166Z,16.10
2018-11-05T10:34:33.409Z,16.10
2018-11-05T10:37:13.964Z,16.10
2018-11-05T10:39:53.547Z,16.20
2018-11-05T10:42:30.444Z,16.30
2018-11-05T10:45:10.908Z,16.30
2018-11-05T10:47:50.891Z,16.30
2018-11-05T10:50:29.349Z,16.40
2018-11-05T10:53:08.672Z,16.40
2018-11-05T10:55:48.581Z,16.40
2018-11-05T10:58:27.540Z,16.40
2018-11-05T11:01:12.404Z,16.40
2018-11-05T11:03:53.451Z,16.40
2018-11-05T11:06:33.168Z,16.40
2018-11-05T11:09:04.662Z,16.50
2018-11-05T11:11:36.713Z,16.50
2018-11-05T11:14:08.245Z,16.50
2018-11-05T11:16:47.838Z,16.60
2018-11-05T11:19:27.675Z,16.70
2018-11-05T11:22:08.306Z,16.80
2018-11-05T11:24:47.520Z,16.90
2018-11-05T11:27:25.455Z,16.90
2018-11-05T11:30:04.957Z,16.90
2018-11-05T11:32:40.774Z,16.90
2018-11-05T11:35:18.149Z,16.90
2018-11-05T11:37:54.576Z,16.90
2018-11-05T11:40:29.120Z,16.90
2018-11-05T11:43:00.851Z,16.90
2018-11-05T11:45:35.720Z,16.90
2018-11-05T11:48:14.795Z,16.90
2018-11-05T11:50:51.192Z,16.90
2018-11-05T11:53:24.260Z,16.90
2018-11-05T11:55:56.219Z,16.90
2018-11-05T11:58:31.805Z,16.90
2018-11-05T12:01:04.489Z,17.00
2018-11-05T12:03:44.199Z,17.00
2018-11-05T12:06:21.290Z,17.20
2018-11-05T12:08:56.039Z,17.30
2018-11-05T12:11:30.793Z,17.40
2018-11-05T12:14:08.077Z,17.60
2018-11-05T12:16:40.461Z,17.70
2018-11-05T12:19:12.400Z,17.70
2018-11-05T12:21:48.841Z,17.70
2018-11-05T12:24:26.727Z,17.90
2018-11-05T12:27:02.735Z,18.10
2018-11-05T12:29:36.205Z,18.20
2018-11-05T12:32:09.229Z,18.30
2018-11-05T12:34:45.158Z,18.40
2018-11-05T12:37:21.825Z,18.40
2018-11-05T12:40:01.762Z,18.40
2018-11-05T12:42:38.092Z,18.60
2018-11-05T12:45:13.189Z,18.70
2018-11-05T12:47:48.065Z,18.80
2018-11-05T12:50:23.987Z,18.90
2018-11-05T12:52:59.595Z,19.00
2018-11-05T12:55:38.903Z,19.10
2018-11-05T12:58:15.132Z,19.10
2018-11-05T13:00:51.651Z,19.00
2018-11-05T13:03:27.095Z,19.00
2018-11-05T13:05:59.495Z,19.00
2018-11-05T13:08:32.215Z,19.00
2018-11-05T13:11:12.751Z,18.90
2018-11-05T13:13:44.731Z,18.80
2018-11-05T13:16:17.181Z,18.80
2018-11-05T13:18:48.267Z,18.70
2018-11-05T13:21:20.612Z,18.70
2018-11-05T13:23:59.560Z,18.70
2018-11-05T13:26:30.988Z,18.70
2018-11-05T13:29:10.579Z,18.70
2018-11-05T13:31:49.623Z,18.70
2018-11-05T13:34:26.959Z,18.70
2018-11-05T13:36:58.932Z,18.70
2018-11-05T13:39:32.849Z,18.90
2018-11-05T13:42:06.729Z,18.90
2018-11-05T13:44:40.943Z,19.00
2018-11-05T13:47:15.332Z,19.20
2018-11-05T13:49:53.303Z,19.30
2018-11-05T13:52:26.698Z,19.40
2018-11-05T13:55:03.021Z,19.50
2018-11-05T13:57:39.255Z,19.50
2018-11-05T14:00:15.522Z,19.50
2018-11-05T14:02:48.731Z,19.50
2018-11-05T14:05:26.426Z,19.50
2018-11-05T14:08:00.002Z,19.60
2018-11-05T14:10:36.455Z,19.50
2018-11-05T14:13:08.288Z,19.50
2018-11-05T14:15:40.395Z,19.40
2018-11-05T14:18:13.164Z,19.40
2018-11-05T14:20:49.623Z,19.40
2018-11-05T14:23:21.822Z,19.40
2018-11-05T14:25:54.311Z,19.40
2018-11-05T14:28:31.222Z,19.40
2018-11-05T14:31:07.693Z,19.40
2018-11-05T14:33:39.425Z,19.30
2018-11-05T14:36:11.862Z,19.40
2018-11-05T14:38:44.304Z,19.40
2018-11-05T14:41:17.624Z,19.30
2018-11-05T14:43:52.368Z,19.20
2018-11-05T14:46:28.252Z,19.20
2018-11-05T14:49:04.450Z,19.20
2018-11-05T14:51:40.357Z,19.20
2018-11-05T14:54:13.297Z,19.10
2018-11-05T14:56:49.272Z,19.10
2018-11-05T14:59:25.387Z,19.00
2018-11-05T15:02:01.037Z,18.80
2018-11-05T15:04:32.158Z,18.70
2018-11-05T15:07:02.877Z,18.50
2018-11-05T15:09:34.228Z,18.40
2018-11-05T15:12:06.237Z,18.40
2018-11-05T15:14:38.058Z,18.30
2018-11-05T15:17:17.367Z,18.20
2018-11-05T15:19:55.887Z,18.10
2018-11-05T15:22:33.335Z,18.00
2018-11-05T15:25:13.210Z,17.90
2018-11-05T15:27:53.049Z,17.80
2018-11-05T15:30:32.787Z,17.70
2018-11-05T15:33:08.370Z,17.60
2018-11-05T15:35:46.729Z,17.60
2018-11-05T15:38:22.751Z,17.50
2018-11-05T15:40:56.720Z,17.40
2018-11-05T15:43:30.719Z,17.30
2018-11-05T15:46:05.719Z,17.20
2018-11-05T15:48:42.180Z,17.20
2018-11-05T15:51:14.729Z,17.10
2018-11-05T15:53:50.638Z,17.00
2018-11-05T15:56:26.505Z,17.00
2018-11-05T15:59:02.303Z,17.00
2018-11-05T16:01:39.357Z,17.00
2018-11-05T16:04:12.355Z,16.90
2018-11-05T16:06:44.258Z,16.90
2018-11-05T16:09:15.987Z,16.90
2018-11-05T16:11:47.705Z,16.90
2018-11-05T16:14:20.165Z,16.80
2018-11-05T16:16:52.705Z,16.80
2018-11-05T16:19:25.135Z,16.70
2018-11-05T16:21:58.272Z,16.70
2018-11-05T16:24:34.227Z,16.60
2018-11-05T16:27:06.489Z,16.60
2018-11-05T16:29:38.519Z,16.60
2018-11-05T16:32:18.742Z,16.60
2018-11-05T16:34:55.715Z,16.60
2018-11-05T16:37:30.982Z,16.50
2018-11-05T16:40:07.927Z,16.50
2018-11-05T16:42:48.988Z,16.50
2018-11-05T16:45:25.438Z,16.60
2018-11-05T16:48:00.392Z,16.60
2018-11-05T16:50:36.968Z,16.70
2018-11-05T16:53:16.586Z,16.70
2018-11-05T16:55:53.691Z,16.70
2018-11-05T16:58:28.824Z,16.70
2018-11-05T17:01:05.430Z,16.70
2018-11-05T17:03:38.174Z,16.60
2018-11-05T17:06:10.885Z,16.60
2018-11-05T17:08:43.213Z,16.50
2018-11-05T17:11:15.153Z,16.50
2018-11-05T17:13:48.491Z,16.50
2018-11-05T17:16:23.768Z,16.40
2018-11-05T17:18:55.595Z,16.50
2018-11-05T17:21:28.549Z,16.50
2018-11-05T17:24:01.460Z,16.50
2018-11-05T17:26:34.508Z,16.50
2018-11-05T17:29:10.500Z,16.50
2018-11-05T17:31:46.040Z,16.60
2018-11-05T17:34:18.985Z,16.60
2018-11-05T17:36:53.421Z,16.70
2018-11-05T17:39:25.566Z,16.60
2018-11-05T17:41:57.267Z,16.70
2018-11-05T17:44:37.297Z,16.60
2018-11-05T17:47:15.137Z,16.60
2018-11-05T17:49:52.016Z,16.60
2018-11-05T17:52:29.200Z,16.60
2018-11-05T17:55:03.773Z,16.50
2018-11-05T17:57:38.382Z,16.60
2018-11-05T18:00:19.485Z,16.60
2018-11-05T18:02:56.345Z,16.60
2018-11-05T18:05:32.258Z,16.60
2018-11-05T18:08:04.338Z,16.60
2018-11-05T18:10:35.967Z,16.60
2018-11-05T18:13:07.989Z,16.60
2018-11-05T18:15:39.839Z,16.50
2018-11-05T18:18:11.588Z,16.50
2018-11-05T18:20:46.339Z,16.50
2018-11-05T18:23:22.087Z,16.50
2018-11-05T18:26:02.114Z,16.50
2018-11-05T18:28:37.555Z,16.50
2018-11-05T18:31:09.815Z,16.60
2018-11-05T18:33:44.298Z,16.60
2018-11-05T18:36:21.097Z,16.60
2018-11-05T18:38:56.231Z,16.70
2018-11-05T18:41:27.830Z,16.60
2018-11-05T18:44:02.839Z,16.60
2018-11-05T18:46:38.739Z,16.60
2018-11-05T18:49:12.340Z,16.60
2018-11-05T18:51:49.382Z,16.70
2018-11-05T18:54:21.517Z,16.70
2018-11-05T18:56:54.500Z,16.80
2018-11-05T18:59:27.149Z,16.80
2018-11-05T19:01:58.979Z,16.80
2018-11-05T19:04:34.675Z,16.80
2018-11-05T19:07:08.063Z,16.80
2018-11-05T19:09:42.180Z,16.70
2018-11-05T19:12:22.524Z,16.70
2018-11-05T19:14:54.465Z,16.70
2018-11-05T19:17:26.115Z,16.70
2018-11-05T19:19:57.864Z,16.70
2018-11-05T19:22:29.742Z,16.70
2018-11-05T19:25:01.445Z,16.60
2018-11-05T19:27:33.545Z,16.60
2018-11-05T19:30:05.825Z,16.70
2018-11-05T19:32:38.315Z,16.70
2018-11-05T19:35:13.839Z,16.70
2018-11-05T19:37:47.219Z,16.60
2018-11-05T19:40:19.389Z,16.60
2018-11-05T19:42:51.833Z,16.60
2018-11-05T19:45:25.120Z,16.60
2018-11-05T19:47:58.228Z,16.60
2018-11-05T19:50:35.801Z,16.60
2018-11-05T19:53:10.743Z,16.60
2018-11-05T19:55:41.914Z,16.50
2018-11-05T19:58:12.342Z,16.50
2018-11-05T20:00:43.743Z,16.50
2018-11-05T20:03:14.863Z,16.50
2018-11-05T20:05:46.612Z,16.50
2018-11-05T20:08:17.984Z,16.60
2018-11-05T20:10:57.494Z,16.60
2018-11-05T20:13:28.943Z,16.60
2018-11-05T20:16:00.474Z,16.60
2018-11-05T20:18:32.975Z,16.60
2018-11-05T20:21:04.485Z,16.60
2018-11-05T20:23:35.845Z,16.60
2018-11-05T20:26:07.467Z,16.60
2018-11-05T20:28:39.270Z,16.50
2018-11-05T20:31:10.327Z,16.50
2018-11-05T20:33:41.249Z,16.50
2018-11-05T20:36:14.315Z,16.50
2018-11-05T20:38:44.576Z,16.60
2018-11-05T20:41:16.855Z,16.60
2018-11-05T20:43:47.596Z,16.60
2018-11-05T20:46:17.927Z,16.70
2018-11-05T20:48:49.087Z,16.70
2018-11-05T20:51:19.565Z,16.70
2018-11-05T20:53:50.724Z,16.60
2018-11-05T20:56:21.377Z,16.60
2018-11-05T20:58:52.136Z,16.60
2018-11-05T21:01:24.356Z,16.60
2018-11-05T21:03:55.627Z,16.60
2018-11-05T21:06:31.906Z,16.60
2018-11-05T21:09:02.306Z,16.70
2018-11-05T21:11:33.786Z,16.70
2018-11-05T21:14:06.855Z,16.70
2018-11-05T21:16:38.165Z,16.60
2018-11-05T21:19:08.805Z,16.60
2018-11-05T21:21:40.290Z,16.60
2018-11-05T21:24:11.213Z,16.60
2018-11-05T21:26:42.549Z,16.60
2018-11-05T21:29:13.507Z,16.60
2018-11-05T21:31:45.936Z,16.60
2018-11-05T21:34:16.498Z,16.60
2018-11-05T21:36:47.915Z,16.60
2018-11-05T21:39:19.466Z,16.50
2018-11-05T21:41:51.005Z,16.50
2018-11-05T21:44:22.195Z,16.50
2018-11-05T21:46:53.355Z,16.50
2018-11-05T21:49:24.965Z,16.50
2018-11-05T21:51:56.856Z,16.40
2018-11-05T21:54:28.309Z,16.40
2018-11-05T21:56:59.675Z,16.40
2018-11-05T21:59:30.976Z,16.40
2018-11-05T22:02:13.695Z,16.40
2018-11-05T22:07:49.004Z,16.40
2018-11-05T22:10:19.560Z,16.40
2018-11-05T22:12:54.225Z,16.40
2018-11-05T22:15:32.669Z,16.40
2018-11-05T22:18:05.406Z,16.40
2018-11-05T22:20:36.435Z,16.40
2018-11-05T22:23:07.967Z,16.40
2018-11-05T22:25:48.079Z,16.50
2018-11-05T22:28:27.579Z,16.40
2018-11-05T22:30:59.720Z,16.50
2018-11-05T22:33:31.260Z,16.50
2018-11-05T22:36:03.169Z,16.50
2018-11-05T22:38:35.668Z,16.50
2018-11-05T22:41:07.482Z,16.50
2018-11-05T22:43:38.308Z,16.50
2018-11-05T22:46:09.007Z,16.50
2018-11-05T22:48:48.232Z,16.50
2018-11-05T22:51:19.533Z,16.40
2018-11-05T22:53:50.311Z,16.40
2018-11-05T22:56:25.832Z,16.40
2018-11-05T22:59:00.010Z,16.30
2018-11-05T23:01:38.523Z,16.30
2018-11-05T23:04:18.511Z,16.30
2018-11-05T23:06:50.542Z,16.20
2018-11-05T23:09:22.752Z,16.20
2018-11-05T23:11:56.142Z,16.20
2018-11-05T23:14:26.582Z,16.10
2018-11-05T23:16:59.127Z,16.10
2018-11-05T23:19:31.527Z,16.00
2018-11-05T23:22:03.517Z,16.00
2018-11-05T23:24:35.458Z,16.00
2018-11-05T23:27:08.509Z,15.90
2018-11-05T23:29:39.548Z,15.90
2018-11-05T23:32:12.039Z,15.90
2018-11-05T23:34:43.008Z,15.80
2018-11-05T23:37:14.608Z,15.80
2018-11-05T23:39:46.118Z,15.80
2018-11-05T23:42:25.577Z,15.80
2018-11-05T23:44:56.678Z,15.80
2018-11-05T23:47:36.148Z,15.80
2018-11-05T23:50:08.159Z,15.70
2018-11-05T23:52:39.608Z,15.70
2018-11-05T23:55:11.858Z,15.70
2018-11-05T23:57:43.469Z,15.70
